AAA2355 YLHI-YSSY
Flight info
| Callsign | AAA2355 |
|---|---|
| Flight time | N/A |
| Altitude | 20000 |
| Route | LHI H258 RIKNI N774 MARLN |
| Aircraft | F27/M-SDFHY/C |
Departure
| Time | 2026-05-06 10:33 |
|---|---|
| Airport | Lord Howe Island Airport (YLHI) |
Arrival
| Time | N/A |
|---|---|
| Airport | Sydney Kingsford Smith International Airport (YSSY) |
| Time | Latitude | Longitude | Altitude | Speed | Heading |
|---|---|---|---|---|---|
| 2026-05-06 10:26 | -31.54028 | 159.07820 | 28 ft | 0 kts | 128° |
| 2026-05-06 10:30 | -31.53997 | 159.07852 | 28 ft | 15 kts | 8° |
| 2026-05-06 10:31 | -31.53909 | 159.07787 | 24 ft | 21 kts | 286° |
| 2026-05-06 10:31 | -31.53832 | 159.07575 | 23 ft | 35 kts | 296° |
| 2026-05-06 10:31 | -31.53739 | 159.07336 | 24 ft | 19 kts | 290° |
| 2026-05-06 10:31 | -31.53666 | 159.07165 | 26 ft | 14 kts | 321° |
| 2026-05-06 10:32 | -31.53665 | 159.07149 | 26 ft | 8 kts | 136° |
| 2026-05-06 10:32 | -31.53682 | 159.07187 | 25 ft | 0 kts | 112° |
| 2026-05-06 10:33 | -31.53695 | 159.07224 | 26 ft | 26 kts | 114° |
| 2026-05-06 10:33 | -31.53897 | 159.07744 | 24 ft | 105 kts | 114° |
| 2026-05-06 10:33 | -31.54216 | 159.08606 | 297 ft | 116 kts | 112° |
| 2026-05-06 10:33 | -31.54552 | 159.09497 | 633 ft | 127 kts | 116° |
| 2026-05-06 10:34 | -31.54979 | 159.10448 | 1078 ft | 136 kts | 118° |
| 2026-05-06 10:34 | -31.55517 | 159.11388 | 1550 ft | 143 kts | 140° |
| 2026-05-06 10:34 | -31.56463 | 159.11468 | 1874 ft | 154 kts | 214° |
| 2026-05-06 10:34 | -31.57359 | 159.10749 | 2259 ft | 157 kts | 215° |
| 2026-05-06 10:35 | -31.58264 | 159.09985 | 2552 ft | 167 kts | 218° |
| 2026-05-06 10:35 | -31.59040 | 159.08981 | 2653 ft | 175 kts | 244° |
| 2026-05-06 10:35 | -31.59286 | 159.07660 | 3094 ft | 160 kts | 268° |
| 2026-05-06 10:35 | -31.59522 | 159.06406 | 3601 ft | 158 kts | 249° |
| 2026-05-06 10:36 | -31.60035 | 159.05265 | 4046 ft | 158 kts | 245° |
| 2026-05-06 10:36 | -31.60491 | 159.04103 | 4506 ft | 156 kts | 250° |
| 2026-05-06 10:36 | -31.60916 | 159.02931 | 4979 ft | 156 kts | 249° |
| 2026-05-06 10:36 | -31.61372 | 159.01768 | 5430 ft | 157 kts | 249° |
| 2026-05-06 10:37 | -31.61818 | 159.00616 | 5883 ft | 158 kts | 249° |
| 2026-05-06 10:37 | -31.62267 | 158.99439 | 6345 ft | 159 kts | 249° |
| 2026-05-06 10:37 | -31.62725 | 158.98256 | 6795 ft | 160 kts | 249° |
| 2026-05-06 10:37 | -31.63182 | 158.97067 | 7246 ft | 161 kts | 249° |
| 2026-05-06 10:38 | -31.63638 | 158.95891 | 7692 ft | 162 kts | 249° |
| 2026-05-06 10:38 | -31.64102 | 158.94685 | 8164 ft | 163 kts | 249° |
| 2026-05-06 10:38 | -31.64567 | 158.93471 | 8645 ft | 164 kts | 249° |
| 2026-05-06 10:38 | -31.65040 | 158.92250 | 9136 ft | 164 kts | 249° |
| 2026-05-06 10:39 | -31.65510 | 158.91022 | 9633 ft | 165 kts | 250° |
| 2026-05-06 10:39 | -31.65980 | 158.89803 | 10120 ft | 166 kts | 249° |
| 2026-05-06 10:39 | -31.66458 | 158.88562 | 10582 ft | 167 kts | 250° |
| 2026-05-06 10:39 | -31.66934 | 158.87316 | 11048 ft | 168 kts | 250° |
| 2026-05-06 10:40 | -31.67419 | 158.86063 | 11529 ft | 169 kts | 250° |
| 2026-05-06 10:40 | -31.67901 | 158.84806 | 12015 ft | 169 kts | 250° |
| 2026-05-06 10:40 | -31.68372 | 158.83571 | 12504 ft | 170 kts | 250° |
| 2026-05-06 10:40 | -31.68862 | 158.82305 | 13013 ft | 171 kts | 251° |
| 2026-05-06 10:41 | -31.69347 | 158.81032 | 13535 ft | 170 kts | 251° |
| 2026-05-06 10:41 | -31.69835 | 158.79765 | 14013 ft | 169 kts | 251° |
| 2026-05-06 10:41 | -31.70316 | 158.78512 | 14436 ft | 168 kts | 251° |
| 2026-05-06 10:41 | -31.70792 | 158.77263 | 14855 ft | 167 kts | 251° |
| 2026-05-06 10:42 | -31.71272 | 158.76021 | 15260 ft | 167 kts | 252° |
| 2026-05-06 10:42 | -31.71746 | 158.74775 | 15683 ft | 166 kts | 252° |
| 2026-05-06 10:42 | -31.72215 | 158.73551 | 16095 ft | 166 kts | 252° |
| 2026-05-06 10:42 | -31.72690 | 158.72315 | 16507 ft | 166 kts | 252° |
| 2026-05-06 10:43 | -31.73159 | 158.71076 | 16918 ft | 166 kts | 252° |
| 2026-05-06 10:43 | -31.73625 | 158.69870 | 17322 ft | 166 kts | 252° |
| 2026-05-06 10:43 | -31.74095 | 158.68635 | 17723 ft | 166 kts | 253° |
| 2026-05-06 10:44 | -31.75041 | 158.66166 | 18524 ft | 166 kts | 253° |
| 2026-05-06 10:44 | -31.75509 | 158.64931 | 18876 ft | 165 kts | 253° |
| 2026-05-06 10:44 | -31.75982 | 158.63697 | 19226 ft | 165 kts | 253° |
| 2026-05-06 10:44 | -31.76452 | 158.62467 | 19574 ft | 165 kts | 253° |
| 2026-05-06 10:45 | -31.76917 | 158.61240 | 19926 ft | 164 kts | 253° |
| 2026-05-06 10:45 | -31.77388 | 158.60015 | 20275 ft | 164 kts | 253° |
| 2026-05-06 10:45 | -31.77851 | 158.58791 | 20627 ft | 164 kts | 253° |
| 2026-05-06 10:45 | -31.78305 | 158.57600 | 20961 ft | 164 kts | 253° |
| 2026-05-06 10:46 | -31.78772 | 158.56381 | 21311 ft | 163 kts | 254° |
| 2026-05-06 10:46 | -31.79227 | 158.55176 | 21653 ft | 163 kts | 253° |
| 2026-05-06 10:46 | -31.79701 | 158.53942 | 21998 ft | 164 kts | 253° |
| 2026-05-06 10:46 | -31.80157 | 158.52738 | 22342 ft | 163 kts | 254° |
| 2026-05-06 10:47 | -31.80621 | 158.51515 | 22681 ft | 164 kts | 253° |
| 2026-05-06 10:47 | -31.81090 | 158.50293 | 23016 ft | 164 kts | 254° |
| 2026-05-06 10:47 | -31.81551 | 158.49070 | 23364 ft | 164 kts | 254° |
| 2026-05-06 10:47 | -31.82016 | 158.47850 | 23670 ft | 164 kts | 253° |
| 2026-05-06 10:48 | -31.82503 | 158.46552 | 23615 ft | 181 kts | 253° |
| 2026-05-06 10:48 | -31.83030 | 158.45160 | 23622 ft | 191 kts | 252° |
| 2026-05-06 10:48 | -31.83579 | 158.43729 | 23615 ft | 196 kts | 252° |
| 2026-05-06 10:48 | -31.84140 | 158.42246 | 23613 ft | 200 kts | 252° |
| 2026-05-06 10:49 | -31.84712 | 158.40743 | 23611 ft | 202 kts | 252° |
| 2026-05-06 10:49 | -31.85288 | 158.39226 | 23609 ft | 204 kts | 252° |
| 2026-05-06 10:49 | -31.85864 | 158.37700 | 23608 ft | 204 kts | 252° |
| 2026-05-06 10:49 | -31.86446 | 158.36169 | 23597 ft | 205 kts | 252° |
| 2026-05-06 10:50 | -31.87020 | 158.34651 | 23601 ft | 206 kts | 252° |
| 2026-05-06 10:50 | -31.87600 | 158.33112 | 23600 ft | 206 kts | 252° |
| 2026-05-06 10:50 | -31.88187 | 158.31571 | 23606 ft | 206 kts | 252° |
| 2026-05-06 10:50 | -31.88769 | 158.30026 | 23602 ft | 207 kts | 252° |
| 2026-05-06 10:51 | -31.89347 | 158.28496 | 23605 ft | 207 kts | 252° |
| 2026-05-06 10:51 | -31.89934 | 158.26948 | 23600 ft | 207 kts | 252° |
| 2026-05-06 10:51 | -31.90517 | 158.25396 | 23606 ft | 207 kts | 252° |
| 2026-05-06 10:51 | -31.91105 | 158.23844 | 23603 ft | 208 kts | 252° |
| 2026-05-06 10:52 | -31.91691 | 158.22289 | 23599 ft | 208 kts | 252° |
| 2026-05-06 10:52 | -31.92278 | 158.20728 | 23595 ft | 209 kts | 252° |
| 2026-05-06 10:52 | -31.92868 | 158.19168 | 23597 ft | 209 kts | 252° |
| 2026-05-06 10:52 | -31.93455 | 158.17604 | 23600 ft | 209 kts | 252° |
| 2026-05-06 10:53 | -31.94046 | 158.16037 | 23594 ft | 209 kts | 252° |
| 2026-05-06 10:53 | -31.94637 | 158.14470 | 23608 ft | 209 kts | 252° |
| 2026-05-06 10:53 | -31.95212 | 158.12934 | 23609 ft | 210 kts | 252° |
| 2026-05-06 10:53 | -31.95798 | 158.11381 | 23609 ft | 210 kts | 252° |
| 2026-05-06 10:54 | -31.96389 | 158.09809 | 23606 ft | 210 kts | 252° |
| 2026-05-06 10:54 | -31.96979 | 158.08235 | 23606 ft | 210 kts | 252° |
| 2026-05-06 10:54 | -31.97573 | 158.06657 | 23608 ft | 210 kts | 252° |
| 2026-05-06 10:54 | -31.98164 | 158.05077 | 23600 ft | 211 kts | 252° |
| 2026-05-06 10:55 | -31.98758 | 158.03497 | 23601 ft | 211 kts | 252° |
| 2026-05-06 10:55 | -31.99352 | 158.01916 | 23605 ft | 211 kts | 252° |
| 2026-05-06 10:55 | -31.99943 | 158.00333 | 23608 ft | 211 kts | 252° |
| 2026-05-06 10:55 | -32.00538 | 157.98750 | 23604 ft | 211 kts | 252° |
| 2026-05-06 10:56 | -32.01114 | 157.97210 | 23599 ft | 212 kts | 252° |
| 2026-05-06 10:56 | -32.01711 | 157.95612 | 23606 ft | 212 kts | 252° |
| 2026-05-06 10:56 | -32.02307 | 157.94024 | 23612 ft | 212 kts | 252° |
| 2026-05-06 10:56 | -32.02900 | 157.92437 | 23601 ft | 212 kts | 252° |
| 2026-05-06 10:57 | -32.03493 | 157.90848 | 23605 ft | 212 kts | 252° |
| 2026-05-06 10:57 | -32.04090 | 157.89255 | 23609 ft | 212 kts | 252° |
| 2026-05-06 10:57 | -32.04682 | 157.87665 | 23605 ft | 212 kts | 252° |
| 2026-05-06 10:57 | -32.05277 | 157.86071 | 23595 ft | 212 kts | 252° |
| 2026-05-06 10:58 | -32.05874 | 157.84474 | 23602 ft | 212 kts | 252° |
| 2026-05-06 10:58 | -32.06468 | 157.82878 | 23605 ft | 212 kts | 252° |
| 2026-05-06 10:58 | -32.07065 | 157.81279 | 23601 ft | 213 kts | 252° |
| 2026-05-06 10:58 | -32.07645 | 157.79723 | 23608 ft | 213 kts | 252° |
| 2026-05-06 10:59 | -32.08238 | 157.78127 | 23608 ft | 213 kts | 252° |
| 2026-05-06 10:59 | -32.08833 | 157.76532 | 23599 ft | 213 kts | 252° |
| 2026-05-06 10:59 | -32.09429 | 157.74932 | 23606 ft | 213 kts | 252° |
| 2026-05-06 10:59 | -32.10021 | 157.73334 | 23608 ft | 213 kts | 252° |
| 2026-05-06 11:00 | -32.10607 | 157.71762 | 23607 ft | 212 kts | 252° |
| 2026-05-06 11:00 | -32.11199 | 157.70167 | 23607 ft | 212 kts | 252° |
| 2026-05-06 11:00 | -32.11794 | 157.68564 | 23610 ft | 212 kts | 252° |
| 2026-05-06 11:00 | -32.12388 | 157.66966 | 23585 ft | 213 kts | 252° |
| 2026-05-06 11:01 | -32.12980 | 157.65370 | 23587 ft | 212 kts | 252° |
| 2026-05-06 11:01 | -32.13556 | 157.63810 | 23590 ft | 212 kts | 252° |
| 2026-05-06 11:01 | -32.14141 | 157.62238 | 23600 ft | 212 kts | 252° |
| 2026-05-06 11:01 | -32.14739 | 157.60624 | 23609 ft | 212 kts | 252° |
| 2026-05-06 11:02 | -32.15327 | 157.59031 | 23600 ft | 212 kts | 252° |
| 2026-05-06 11:02 | -32.15911 | 157.57462 | 23605 ft | 212 kts | 252° |
| 2026-05-06 11:02 | -32.16499 | 157.55868 | 23606 ft | 211 kts | 252° |
| 2026-05-06 11:02 | -32.17086 | 157.54278 | 23606 ft | 211 kts | 252° |
| 2026-05-06 11:03 | -32.17677 | 157.52686 | 23605 ft | 211 kts | 252° |
| 2026-05-06 11:03 | -32.18261 | 157.51098 | 23609 ft | 211 kts | 252° |
| 2026-05-06 11:03 | -32.18848 | 157.49511 | 23607 ft | 211 kts | 252° |
| 2026-05-06 11:03 | -32.19418 | 157.47970 | 23611 ft | 210 kts | 252° |
| 2026-05-06 11:04 | -32.20001 | 157.46383 | 23606 ft | 210 kts | 252° |
| 2026-05-06 11:04 | -32.20586 | 157.44803 | 23607 ft | 210 kts | 252° |
| 2026-05-06 11:04 | -32.21169 | 157.43221 | 23607 ft | 210 kts | 252° |
| 2026-05-06 11:04 | -32.21749 | 157.41643 | 23609 ft | 210 kts | 252° |
| 2026-05-06 11:05 | -32.22332 | 157.40064 | 23608 ft | 209 kts | 252° |
| 2026-05-06 11:05 | -32.22903 | 157.38509 | 23606 ft | 209 kts | 253° |
| 2026-05-06 11:05 | -32.23482 | 157.36935 | 23610 ft | 209 kts | 252° |
| 2026-05-06 11:05 | -32.24063 | 157.35361 | 23611 ft | 209 kts | 253° |
| 2026-05-06 11:06 | -32.24638 | 157.33789 | 23609 ft | 208 kts | 253° |
| 2026-05-06 11:06 | -32.25199 | 157.32266 | 23612 ft | 208 kts | 253° |
| 2026-05-06 11:06 | -32.25779 | 157.30688 | 23608 ft | 208 kts | 253° |
| 2026-05-06 11:06 | -32.26353 | 157.29118 | 23613 ft | 208 kts | 253° |
| 2026-05-06 11:07 | -32.26930 | 157.27550 | 23607 ft | 208 kts | 253° |
| 2026-05-06 11:07 | -32.27505 | 157.25985 | 23606 ft | 208 kts | 253° |
| 2026-05-06 11:07 | -32.28078 | 157.24416 | 23615 ft | 207 kts | 253° |
| 2026-05-06 11:07 | -32.28652 | 157.22853 | 23612 ft | 207 kts | 253° |
| 2026-05-06 11:08 | -32.29225 | 157.21288 | 23611 ft | 207 kts | 253° |
| 2026-05-06 11:08 | -32.29797 | 157.19723 | 23611 ft | 207 kts | 253° |
| 2026-05-06 11:08 | -32.30361 | 157.18185 | 23614 ft | 207 kts | 253° |
| 2026-05-06 11:08 | -32.30931 | 157.16625 | 23615 ft | 207 kts | 253° |
| 2026-05-06 11:09 | -32.31495 | 157.15079 | 23611 ft | 207 kts | 253° |
| 2026-05-06 11:09 | -32.32066 | 157.13520 | 23614 ft | 207 kts | 253° |
| 2026-05-06 11:09 | -32.32637 | 157.11956 | 23612 ft | 207 kts | 253° |
| 2026-05-06 11:09 | -32.33205 | 157.10395 | 23613 ft | 207 kts | 253° |
| 2026-05-06 11:10 | -32.33778 | 157.08832 | 23607 ft | 207 kts | 253° |
| 2026-05-06 11:10 | -32.34347 | 157.07269 | 23610 ft | 207 kts | 253° |
| 2026-05-06 11:10 | -32.34916 | 157.05707 | 23606 ft | 207 kts | 253° |
| 2026-05-06 11:10 | -32.35486 | 157.04144 | 23616 ft | 207 kts | 253° |
| 2026-05-06 11:11 | -32.36056 | 157.02576 | 23612 ft | 207 kts | 254° |
| 2026-05-06 11:11 | -32.36627 | 157.01010 | 23613 ft | 207 kts | 253° |
| 2026-05-06 11:11 | -32.37185 | 156.99480 | 23612 ft | 207 kts | 254° |
| 2026-05-06 11:11 | -32.37753 | 156.97911 | 23612 ft | 208 kts | 254° |
| 2026-05-06 11:12 | -32.38325 | 156.96340 | 23605 ft | 208 kts | 254° |
| 2026-05-06 11:12 | -32.38896 | 156.94770 | 23605 ft | 208 kts | 254° |
| 2026-05-06 11:12 | -32.39466 | 156.93198 | 23608 ft | 208 kts | 254° |
| 2026-05-06 11:12 | -32.40038 | 156.91626 | 23616 ft | 208 kts | 254° |
| 2026-05-06 11:13 | -32.40608 | 156.90051 | 23612 ft | 208 kts | 254° |
| 2026-05-06 11:13 | -32.41173 | 156.88494 | 23612 ft | 208 kts | 254° |
| 2026-05-06 11:13 | -32.41746 | 156.86919 | 23613 ft | 208 kts | 254° |
| 2026-05-06 11:13 | -32.42316 | 156.85340 | 23610 ft | 208 kts | 254° |
| 2026-05-06 11:14 | -32.42889 | 156.83762 | 23611 ft | 208 kts | 254° |
| 2026-05-06 11:14 | -32.43455 | 156.82201 | 23610 ft | 208 kts | 254° |
| 2026-05-06 11:14 | -32.44022 | 156.80625 | 23612 ft | 209 kts | 254° |
| 2026-05-06 11:14 | -32.44595 | 156.79046 | 23614 ft | 209 kts | 254° |
| 2026-05-06 11:15 | -32.45161 | 156.77477 | 23612 ft | 209 kts | 254° |
| 2026-05-06 11:15 | -32.45730 | 156.75876 | 23573 ft | 210 kts | 255° |
| 2026-05-06 11:15 | -32.46278 | 156.74267 | 23534 ft | 210 kts | 256° |
| 2026-05-06 11:15 | -32.46793 | 156.72652 | 23545 ft | 209 kts | 257° |
| 2026-05-06 11:16 | -32.47108 | 156.71585 | 23564 ft | 207 kts | 258° |
| 2026-05-06 11:16 | -32.47679 | 156.69410 | 23530 ft | 207 kts | 261° |
| 2026-05-06 11:16 | -32.48042 | 156.67762 | 23516 ft | 206 kts | 263° |
| 2026-05-06 11:16 | -32.48248 | 156.66668 | 23526 ft | 205 kts | 264° |
| 2026-05-06 11:17 | -32.48568 | 156.64482 | 23553 ft | 202 kts | 268° |
| 2026-05-06 11:17 | -32.48723 | 156.62850 | 23535 ft | 202 kts | 270° |
| 2026-05-06 11:17 | -32.48804 | 156.61191 | 23524 ft | 201 kts | 273° |
| 2026-05-06 11:17 | -32.48815 | 156.60074 | 23531 ft | 200 kts | 275° |
| 2026-05-06 11:18 | -32.48729 | 156.57904 | 23544 ft | 198 kts | 279° |
| 2026-05-06 11:18 | -32.48569 | 156.56285 | 23538 ft | 198 kts | 282° |
| 2026-05-06 11:18 | -32.48413 | 156.55199 | 23531 ft | 198 kts | 284° |
| 2026-05-06 11:18 | -32.48113 | 156.53613 | 23517 ft | 197 kts | 287° |
| 2026-05-06 11:19 | -32.47734 | 156.52077 | 23534 ft | 196 kts | 290° |
| 2026-05-06 11:19 | -32.47273 | 156.50570 | 23548 ft | 195 kts | 293° |
| 2026-05-06 11:19 | -32.46746 | 156.49134 | 23533 ft | 196 kts | 296° |
| 2026-05-06 11:19 | -32.46127 | 156.47697 | 23524 ft | 196 kts | 299° |
| 2026-05-06 11:20 | -32.45434 | 156.46310 | 23538 ft | 195 kts | 302° |
| 2026-05-06 11:20 | -32.44670 | 156.44983 | 23538 ft | 195 kts | 305° |
| 2026-05-06 11:20 | -32.43947 | 156.43626 | 23515 ft | 196 kts | 292° |
| 2026-05-06 11:20 | -32.43776 | 156.42020 | 23458 ft | 203 kts | 267° |
| 2026-05-06 11:21 | -32.44304 | 156.40442 | 23419 ft | 215 kts | 242° |
| 2026-05-06 11:21 | -32.45454 | 156.39236 | 23388 ft | 230 kts | 218° |
| 2026-05-06 11:21 | -32.46904 | 156.38410 | 23402 ft | 230 kts | 215° |
| 2026-05-06 11:21 | -32.48252 | 156.37445 | 23398 ft | 224 kts | 225° |
| 2026-05-06 11:22 | -32.49386 | 156.36277 | 23405 ft | 218 kts | 234° |
| 2026-05-06 11:22 | -32.50264 | 156.34839 | 23402 ft | 210 kts | 249° |
| 2026-05-06 11:22 | -32.50877 | 156.33288 | 23419 ft | 207 kts | 252° |
| 2026-05-06 11:22 | -32.51516 | 156.31753 | 23436 ft | 209 kts | 249° |
| 2026-05-06 11:23 | -32.52206 | 156.30240 | 23452 ft | 208 kts | 249° |
| 2026-05-06 11:23 | -32.52867 | 156.28743 | 23465 ft | 207 kts | 250° |
| 2026-05-06 11:23 | -32.53539 | 156.27202 | 23487 ft | 207 kts | 250° |
| 2026-05-06 11:23 | -32.54207 | 156.25690 | 23496 ft | 207 kts | 250° |
| 2026-05-06 11:24 | -32.54860 | 156.24199 | 23509 ft | 207 kts | 250° |
| 2026-05-06 11:24 | -32.55524 | 156.22689 | 23520 ft | 206 kts | 250° |
| 2026-05-06 11:24 | -32.56195 | 156.21163 | 23522 ft | 206 kts | 250° |
| 2026-05-06 11:24 | -32.56830 | 156.19711 | 23533 ft | 206 kts | 250° |
| 2026-05-06 11:25 | -32.57493 | 156.18205 | 23546 ft | 205 kts | 250° |
| 2026-05-06 11:25 | -32.58152 | 156.16702 | 23551 ft | 205 kts | 250° |
| 2026-05-06 11:25 | -32.58808 | 156.15201 | 23558 ft | 205 kts | 250° |
| 2026-05-06 11:25 | -32.59467 | 156.13701 | 23568 ft | 205 kts | 250° |
| 2026-05-06 11:26 | -32.60121 | 156.12204 | 23578 ft | 204 kts | 251° |
| 2026-05-06 11:26 | -32.60776 | 156.10709 | 23584 ft | 204 kts | 250° |
| 2026-05-06 11:26 | -32.61432 | 156.09214 | 23585 ft | 204 kts | 250° |
| 2026-05-06 11:26 | -32.62083 | 156.07720 | 23595 ft | 204 kts | 250° |
| 2026-05-06 11:27 | -32.62736 | 156.06230 | 23595 ft | 203 kts | 250° |
| 2026-05-06 11:27 | -32.63370 | 156.04777 | 23613 ft | 203 kts | 251° |
| 2026-05-06 11:27 | -32.64019 | 156.03291 | 23617 ft | 203 kts | 250° |
| 2026-05-06 11:27 | -32.64668 | 156.01805 | 23621 ft | 203 kts | 251° |
| 2026-05-06 11:28 | -32.65308 | 156.00339 | 23624 ft | 203 kts | 251° |
| 2026-05-06 11:28 | -32.65956 | 155.98855 | 23626 ft | 203 kts | 251° |
| 2026-05-06 11:28 | -32.66613 | 155.97349 | 23630 ft | 203 kts | 251° |
| 2026-05-06 11:28 | -32.67250 | 155.95882 | 23631 ft | 203 kts | 251° |
| 2026-05-06 11:29 | -32.67900 | 155.94396 | 23640 ft | 203 kts | 251° |
| 2026-05-06 11:29 | -32.68546 | 155.92911 | 23644 ft | 203 kts | 251° |
| 2026-05-06 11:29 | -32.69193 | 155.91425 | 23645 ft | 203 kts | 251° |
| 2026-05-06 11:29 | -32.69840 | 155.89941 | 23648 ft | 202 kts | 251° |
| 2026-05-06 11:30 | -32.70477 | 155.88473 | 23655 ft | 202 kts | 251° |
| 2026-05-06 11:30 | -32.71125 | 155.86986 | 23656 ft | 202 kts | 251° |
| 2026-05-06 11:30 | -32.71771 | 155.85499 | 23659 ft | 202 kts | 251° |
| 2026-05-06 11:30 | -32.72415 | 155.84014 | 23664 ft | 202 kts | 251° |
| 2026-05-06 11:31 | -32.73061 | 155.82530 | 23671 ft | 202 kts | 251° |
| 2026-05-06 11:31 | -32.73704 | 155.81046 | 23677 ft | 202 kts | 251° |
| 2026-05-06 11:31 | -32.74348 | 155.79563 | 23682 ft | 202 kts | 251° |
| 2026-05-06 11:31 | -32.74993 | 155.78079 | 23683 ft | 202 kts | 251° |
| 2026-05-06 11:32 | -32.75634 | 155.76596 | 23689 ft | 202 kts | 251° |
| 2026-05-06 11:32 | -32.76278 | 155.75115 | 23697 ft | 202 kts | 251° |
| 2026-05-06 11:32 | -32.76896 | 155.73687 | 23699 ft | 201 kts | 251° |
| 2026-05-06 11:32 | -32.77536 | 155.72205 | 23704 ft | 201 kts | 251° |
| 2026-05-06 11:33 | -32.78179 | 155.70726 | 23709 ft | 201 kts | 251° |
| 2026-05-06 11:33 | -32.78816 | 155.69249 | 23712 ft | 201 kts | 251° |
| 2026-05-06 11:33 | -32.79457 | 155.67768 | 23716 ft | 201 kts | 251° |
| 2026-05-06 11:33 | -32.80097 | 155.66289 | 23725 ft | 201 kts | 251° |
| 2026-05-06 11:34 | -32.80736 | 155.64808 | 23724 ft | 201 kts | 251° |
| 2026-05-06 11:34 | -32.81377 | 155.63327 | 23725 ft | 201 kts | 251° |
| 2026-05-06 11:34 | -32.82017 | 155.61842 | 23728 ft | 201 kts | 251° |
| 2026-05-06 11:34 | -32.82656 | 155.60363 | 23733 ft | 201 kts | 251° |
| 2026-05-06 11:35 | -32.83296 | 155.58883 | 23736 ft | 201 kts | 251° |
| 2026-05-06 11:35 | -32.83909 | 155.57453 | 23739 ft | 201 kts | 251° |
| 2026-05-06 11:35 | -32.84551 | 155.55971 | 23742 ft | 202 kts | 251° |
| 2026-05-06 11:35 | -32.85191 | 155.54485 | 23748 ft | 202 kts | 251° |
| 2026-05-06 11:36 | -32.85831 | 155.52999 | 23749 ft | 202 kts | 251° |
| 2026-05-06 11:36 | -32.86472 | 155.51513 | 23753 ft | 202 kts | 251° |
| 2026-05-06 11:36 | -32.87110 | 155.50025 | 23756 ft | 202 kts | 251° |
| 2026-05-06 11:36 | -32.87751 | 155.48538 | 23760 ft | 202 kts | 251° |
| 2026-05-06 11:37 | -32.88391 | 155.47051 | 23767 ft | 202 kts | 251° |
| 2026-05-06 11:37 | -32.89029 | 155.45563 | 23766 ft | 202 kts | 251° |
| 2026-05-06 11:37 | -32.89672 | 155.44071 | 23771 ft | 202 kts | 251° |
| 2026-05-06 11:37 | -32.90294 | 155.42620 | 23774 ft | 202 kts | 251° |
| 2026-05-06 11:38 | -32.90924 | 155.41151 | 23775 ft | 202 kts | 251° |
| 2026-05-06 11:38 | -32.91566 | 155.39659 | 23779 ft | 202 kts | 252° |
| 2026-05-06 11:38 | -32.92204 | 155.38166 | 23784 ft | 202 kts | 251° |
| 2026-05-06 11:38 | -32.92846 | 155.36675 | 23786 ft | 202 kts | 251° |
| 2026-05-06 11:39 | -32.93483 | 155.35184 | 23790 ft | 202 kts | 252° |
| 2026-05-06 11:39 | -32.94122 | 155.33692 | 23792 ft | 202 kts | 251° |
| 2026-05-06 11:39 | -32.94762 | 155.32203 | 23795 ft | 202 kts | 252° |
| 2026-05-06 11:39 | -32.95398 | 155.30712 | 23801 ft | 202 kts | 252° |
| 2026-05-06 11:40 | -32.96035 | 155.29224 | 23805 ft | 202 kts | 251° |
| 2026-05-06 11:40 | -32.96673 | 155.27734 | 23808 ft | 202 kts | 252° |
| 2026-05-06 11:40 | -32.97292 | 155.26284 | 23811 ft | 201 kts | 252° |
| 2026-05-06 11:40 | -32.97928 | 155.24797 | 23813 ft | 201 kts | 251° |
| 2026-05-06 11:41 | -32.98562 | 155.23312 | 23814 ft | 201 kts | 252° |
| 2026-05-06 11:41 | -32.99196 | 155.21826 | 23823 ft | 201 kts | 251° |
| 2026-05-06 11:41 | -32.99833 | 155.20341 | 23824 ft | 201 kts | 252° |
| 2026-05-06 11:41 | -33.00463 | 155.18856 | 23831 ft | 201 kts | 252° |
| 2026-05-06 11:42 | -33.01095 | 155.17375 | 23841 ft | 200 kts | 251° |
| 2026-05-06 11:42 | -33.01728 | 155.15894 | 23844 ft | 200 kts | 252° |
| 2026-05-06 11:42 | -33.02348 | 155.14430 | 23850 ft | 200 kts | 252° |
| 2026-05-06 11:42 | -33.02979 | 155.12954 | 23850 ft | 200 kts | 252° |
| 2026-05-06 11:43 | -33.03608 | 155.11476 | 23857 ft | 200 kts | 252° |
| 2026-05-06 11:43 | -33.04229 | 155.10016 | 23857 ft | 199 kts | 252° |
| 2026-05-06 11:43 | -33.04857 | 155.08543 | 23863 ft | 199 kts | 252° |
| 2026-05-06 11:44 | -33.06108 | 155.05599 | 23872 ft | 199 kts | 252° |
| 2026-05-06 11:44 | -33.06731 | 155.04130 | 23877 ft | 198 kts | 252° |
| 2026-05-06 11:44 | -33.07355 | 155.02661 | 23880 ft | 198 kts | 252° |
| 2026-05-06 11:44 | -33.07978 | 155.01196 | 23882 ft | 198 kts | 252° |
| 2026-05-06 11:45 | -33.08598 | 154.99730 | 23885 ft | 198 kts | 252° |
| 2026-05-06 11:45 | -33.09220 | 154.98269 | 23931 ft | 198 kts | 252° |
| 2026-05-06 11:45 | -33.09830 | 154.96828 | 23947 ft | 196 kts | 252° |
| 2026-05-06 11:45 | -33.10430 | 154.95411 | 23959 ft | 195 kts | 251° |
| 2026-05-06 11:46 | -33.11044 | 154.93966 | 23963 ft | 195 kts | 252° |
| 2026-05-06 11:46 | -33.11653 | 154.92521 | 23967 ft | 195 kts | 252° |
| 2026-05-06 11:46 | -33.12266 | 154.91077 | 23965 ft | 195 kts | 251° |
| 2026-05-06 11:46 | -33.12876 | 154.89632 | 23967 ft | 195 kts | 252° |
| 2026-05-06 11:47 | -33.13486 | 154.88189 | 23972 ft | 195 kts | 251° |
| 2026-05-06 11:47 | -33.14100 | 154.86740 | 23976 ft | 195 kts | 251° |
| 2026-05-06 11:47 | -33.14711 | 154.85290 | 23976 ft | 195 kts | 252° |
| 2026-05-06 11:47 | -33.15323 | 154.83844 | 23983 ft | 195 kts | 251° |
| 2026-05-06 11:48 | -33.15934 | 154.82398 | 23985 ft | 195 kts | 252° |
| 2026-05-06 11:48 | -33.16537 | 154.80965 | 23989 ft | 195 kts | 251° |
| 2026-05-06 11:48 | -33.17143 | 154.79535 | 23992 ft | 195 kts | 251° |
| 2026-05-06 11:48 | -33.17750 | 154.78088 | 23993 ft | 195 kts | 252° |
| 2026-05-06 11:49 | -33.18360 | 154.76642 | 23999 ft | 195 kts | 251° |
| 2026-05-06 11:49 | -33.18971 | 154.75195 | 24003 ft | 195 kts | 252° |
| 2026-05-06 11:49 | -33.19580 | 154.73744 | 24011 ft | 195 kts | 251° |
| 2026-05-06 11:49 | -33.20191 | 154.72298 | 24003 ft | 195 kts | 251° |
| 2026-05-06 11:50 | -33.20800 | 154.70849 | 24007 ft | 195 kts | 251° |
| 2026-05-06 11:50 | -33.21410 | 154.69396 | 24011 ft | 195 kts | 251° |
| 2026-05-06 11:50 | -33.22023 | 154.67944 | 24013 ft | 195 kts | 251° |
| 2026-05-06 11:50 | -33.22615 | 154.66530 | 24019 ft | 196 kts | 252° |
| 2026-05-06 11:51 | -33.23227 | 154.65076 | 24022 ft | 196 kts | 251° |
| 2026-05-06 11:51 | -33.23837 | 154.63625 | 24024 ft | 195 kts | 252° |
| 2026-05-06 11:51 | -33.24444 | 154.62173 | 24032 ft | 196 kts | 251° |
| 2026-05-06 11:51 | -33.25055 | 154.60722 | 24030 ft | 196 kts | 251° |
| 2026-05-06 11:52 | -33.25664 | 154.59268 | 24033 ft | 196 kts | 252° |
| 2026-05-06 11:52 | -33.26273 | 154.57813 | 24034 ft | 196 kts | 251° |
| 2026-05-06 11:52 | -33.26885 | 154.56359 | 24039 ft | 196 kts | 251° |
| 2026-05-06 11:52 | -33.27493 | 154.54903 | 24044 ft | 196 kts | 251° |
| 2026-05-06 11:53 | -33.28102 | 154.53449 | 24043 ft | 196 kts | 251° |
| 2026-05-06 11:53 | -33.28683 | 154.52066 | 24048 ft | 196 kts | 251° |
| 2026-05-06 11:53 | -33.29304 | 154.50573 | 24053 ft | 196 kts | 251° |
| 2026-05-06 11:53 | -33.29915 | 154.49117 | 24056 ft | 196 kts | 251° |
| 2026-05-06 11:54 | -33.30517 | 154.47675 | 24057 ft | 196 kts | 251° |
| 2026-05-06 11:54 | -33.31127 | 154.46215 | 24060 ft | 196 kts | 251° |
| 2026-05-06 11:54 | -33.31738 | 154.44755 | 24060 ft | 196 kts | 251° |
| 2026-05-06 11:54 | -33.32346 | 154.43291 | 24064 ft | 196 kts | 251° |
| 2026-05-06 11:55 | -33.32960 | 154.41827 | 24068 ft | 196 kts | 251° |
| 2026-05-06 11:55 | -33.33570 | 154.40367 | 24076 ft | 196 kts | 251° |
| 2026-05-06 11:55 | -33.34176 | 154.38908 | 24075 ft | 196 kts | 251° |
| 2026-05-06 11:55 | -33.34787 | 154.37445 | 24074 ft | 196 kts | 251° |
| 2026-05-06 11:56 | -33.35381 | 154.36019 | 24078 ft | 196 kts | 251° |
| 2026-05-06 11:56 | -33.35989 | 154.34555 | 24082 ft | 196 kts | 251° |
| 2026-05-06 11:56 | -33.36600 | 154.33092 | 24086 ft | 196 kts | 251° |
| 2026-05-06 11:56 | -33.37207 | 154.31627 | 24087 ft | 196 kts | 251° |
| 2026-05-06 11:57 | -33.37817 | 154.30164 | 24089 ft | 197 kts | 251° |
| 2026-05-06 11:57 | -33.38427 | 154.28700 | 24093 ft | 197 kts | 251° |
| 2026-05-06 11:57 | -33.39025 | 154.27254 | 24092 ft | 197 kts | 251° |
| 2026-05-06 11:57 | -33.39638 | 154.25786 | 24099 ft | 197 kts | 251° |
| 2026-05-06 11:58 | -33.40245 | 154.24321 | 24103 ft | 197 kts | 251° |
| 2026-05-06 11:58 | -33.40852 | 154.22855 | 24107 ft | 197 kts | 251° |
| 2026-05-06 11:58 | -33.41456 | 154.21406 | 24104 ft | 197 kts | 251° |
| 2026-05-06 11:58 | -33.42062 | 154.19937 | 24107 ft | 197 kts | 251° |
| 2026-05-06 11:59 | -33.42670 | 154.18473 | 24113 ft | 197 kts | 251° |
| 2026-05-06 11:59 | -33.43281 | 154.17003 | 24114 ft | 197 kts | 251° |
| 2026-05-06 11:59 | -33.43886 | 154.15535 | 24116 ft | 197 kts | 251° |
| 2026-05-06 11:59 | -33.44496 | 154.14067 | 24122 ft | 197 kts | 251° |
| 2026-05-06 12:00 | -33.45103 | 154.12597 | 24126 ft | 197 kts | 251° |
| 2026-05-06 12:00 | -33.45711 | 154.11125 | 24127 ft | 197 kts | 251° |
| 2026-05-06 12:00 | -33.46322 | 154.09654 | 24130 ft | 197 kts | 251° |
| 2026-05-06 12:00 | -33.46929 | 154.08179 | 24114 ft | 197 kts | 251° |
| 2026-05-06 12:01 | -33.47522 | 154.06745 | 24134 ft | 197 kts | 251° |
| 2026-05-06 12:01 | -33.48131 | 154.05272 | 24140 ft | 197 kts | 251° |
| 2026-05-06 12:01 | -33.48739 | 154.03796 | 24143 ft | 197 kts | 251° |
| 2026-05-06 12:01 | -33.49347 | 154.02326 | 24151 ft | 197 kts | 251° |
| 2026-05-06 12:02 | -33.49955 | 154.00848 | 24153 ft | 197 kts | 251° |
| 2026-05-06 12:02 | -33.50564 | 153.99375 | 24153 ft | 198 kts | 251° |
| 2026-05-06 12:02 | -33.50968 | 153.98397 | 24155 ft | 198 kts | 251° |
| 2026-05-06 12:02 | -33.51779 | 153.96421 | 24162 ft | 198 kts | 251° |
| 2026-05-06 12:03 | -33.52183 | 153.95443 | 24163 ft | 198 kts | 251° |
| 2026-05-06 12:03 | -33.52791 | 153.93965 | 24170 ft | 198 kts | 251° |
| 2026-05-06 12:03 | -33.53399 | 153.92486 | 24172 ft | 198 kts | 251° |
| 2026-05-06 12:03 | -33.53994 | 153.91043 | 24173 ft | 198 kts | 251° |
| 2026-05-06 12:04 | -33.54600 | 153.89564 | 24172 ft | 198 kts | 251° |
| 2026-05-06 12:04 | -33.55407 | 153.87602 | 24178 ft | 198 kts | 251° |
| 2026-05-06 12:04 | -33.56015 | 153.86121 | 24176 ft | 198 kts | 251° |
| 2026-05-06 12:04 | -33.56425 | 153.85119 | 24186 ft | 198 kts | 251° |
| 2026-05-06 12:05 | -33.57035 | 153.83637 | 24185 ft | 198 kts | 251° |
| 2026-05-06 12:05 | -33.57643 | 153.82156 | 24189 ft | 198 kts | 251° |
| 2026-05-06 12:05 | -33.58249 | 153.80673 | 24189 ft | 198 kts | 251° |
| 2026-05-06 12:05 | -33.58852 | 153.79207 | 24195 ft | 198 kts | 251° |
| 2026-05-06 12:06 | -33.59459 | 153.77722 | 24200 ft | 198 kts | 251° |
| 2026-05-06 12:06 | -33.60052 | 153.76272 | 24206 ft | 198 kts | 251° |
| 2026-05-06 12:06 | -33.60662 | 153.74788 | 24210 ft | 198 kts | 251° |
| 2026-05-06 12:06 | -33.61267 | 153.73301 | 24212 ft | 198 kts | 251° |
| 2026-05-06 12:07 | -33.61876 | 153.71817 | 24213 ft | 199 kts | 251° |
| 2026-05-06 12:07 | -33.62486 | 153.70325 | 24216 ft | 199 kts | 251° |
| 2026-05-06 12:07 | -33.63093 | 153.68833 | 24219 ft | 199 kts | 251° |
| 2026-05-06 12:07 | -33.63704 | 153.67345 | 24219 ft | 199 kts | 251° |
| 2026-05-06 12:08 | -33.64312 | 153.65851 | 24220 ft | 199 kts | 251° |
| 2026-05-06 12:08 | -33.64761 | 153.64305 | 24209 ft | 194 kts | 262° |
| 2026-05-06 12:08 | -33.65057 | 153.62726 | 24212 ft | 195 kts | 261° |
| 2026-05-06 12:08 | -33.65445 | 153.61161 | 24216 ft | 196 kts | 258° |
| 2026-05-06 12:09 | -33.65837 | 153.59690 | 24216 ft | 196 kts | 259° |
| 2026-05-06 12:09 | -33.66238 | 153.58087 | 24220 ft | 195 kts | 259° |
| 2026-05-06 12:09 | -33.66635 | 153.56520 | 24223 ft | 196 kts | 259° |
| 2026-05-06 12:09 | -33.67030 | 153.54959 | 24227 ft | 196 kts | 259° |
| 2026-05-06 12:10 | -33.67419 | 153.53416 | 24230 ft | 196 kts | 259° |
| 2026-05-06 12:10 | -33.67821 | 153.51831 | 24235 ft | 196 kts | 259° |
| 2026-05-06 12:10 | -33.68215 | 153.50266 | 24239 ft | 196 kts | 259° |
| 2026-05-06 12:10 | -33.68606 | 153.48721 | 24242 ft | 196 kts | 259° |
| 2026-05-06 12:11 | -33.68998 | 153.47164 | 24246 ft | 196 kts | 259° |
| 2026-05-06 12:11 | -33.69394 | 153.45589 | 24246 ft | 196 kts | 259° |
| 2026-05-06 12:11 | -33.69791 | 153.44019 | 24254 ft | 196 kts | 259° |
| 2026-05-06 12:11 | -33.70172 | 153.42502 | 24249 ft | 196 kts | 259° |
| 2026-05-06 12:12 | -33.70568 | 153.40928 | 24261 ft | 196 kts | 259° |
| 2026-05-06 12:12 | -33.70964 | 153.39362 | 24254 ft | 196 kts | 259° |
| 2026-05-06 12:12 | -33.71354 | 153.37796 | 24268 ft | 196 kts | 259° |
| 2026-05-06 12:12 | -33.71748 | 153.36234 | 24273 ft | 196 kts | 259° |
| 2026-05-06 12:13 | -33.72143 | 153.34662 | 24269 ft | 196 kts | 259° |
| 2026-05-06 12:13 | -33.72536 | 153.33094 | 24277 ft | 196 kts | 259° |
| 2026-05-06 12:13 | -33.72930 | 153.31527 | 24279 ft | 196 kts | 259° |
| 2026-05-06 12:13 | -33.73320 | 153.29964 | 24283 ft | 196 kts | 259° |
| 2026-05-06 12:14 | -33.73715 | 153.28390 | 24284 ft | 196 kts | 259° |
| 2026-05-06 12:14 | -33.74107 | 153.26824 | 24291 ft | 196 kts | 259° |
| 2026-05-06 12:14 | -33.74498 | 153.25256 | 24293 ft | 196 kts | 259° |
| 2026-05-06 12:14 | -33.74888 | 153.23704 | 24297 ft | 196 kts | 259° |
| 2026-05-06 12:15 | -33.75279 | 153.22137 | 24295 ft | 196 kts | 259° |
| 2026-05-06 12:15 | -33.75670 | 153.20565 | 24302 ft | 196 kts | 259° |
| 2026-05-06 12:15 | -33.76064 | 153.18997 | 24305 ft | 196 kts | 259° |
| 2026-05-06 12:15 | -33.76453 | 153.17426 | 24308 ft | 196 kts | 259° |
| 2026-05-06 12:16 | -33.76690 | 153.16475 | 24311 ft | 196 kts | 259° |
| 2026-05-06 12:16 | -33.77082 | 153.14909 | 24315 ft | 196 kts | 259° |